sensor_id;sensor_type;location;lat;lon;timestamp;temperature;humidity
19974;DHT22;10148;47.694;9.442;2022-09-03T00:02:01;17.10;99.90
19974;DHT22;10148;47.694;9.442;2022-09-03T00:04:48;17.10;99.90
19974;DHT22;10148;47.694;9.442;2022-09-03T00:07:29;17.00;99.90
19974;DHT22;10148;47.694;9.442;2022-09-03T00:10:01;17.10;99.90
19974;DHT22;10148;47.694;9.442;2022-09-03T00:12:29;17.00;99.90
19974;DHT22;10148;47.694;9.442;2022-09-03T00:17:35;17.00;99.90
19974;DHT22;10148;47.694;9.442;2022-09-03T00:20:06;17.00;99.90
19974;DHT22;10148;47.694;9.442;2022-09-03T00:22:37;17.00;99.90
19974;DHT22;10148;47.694;9.442;2022-09-03T00:25:08;17.00;99.90
19974;DHT22;10148;47.694;9.442;2022-09-03T00:27:38;17.00;99.90
19974;DHT22;10148;47.694;9.442;2022-09-03T00:30:09;17.00;99.90
19974;DHT22;10148;47.694;9.442;2022-09-03T00:35:22;17.00;99.90
19974;DHT22;10148;47.694;9.442;2022-09-03T00:37:51;17.00;99.90
19974;DHT22;10148;47.694;9.442;2022-09-03T00:51:52;16.90;99.90
19974;DHT22;10148;47.694;9.442;2022-09-03T00:54:27;16.90;99.90
19974;DHT22;10148;47.694;9.442;2022-09-03T00:57:30;16.80;99.90
19974;DHT22;10148;47.694;9.442;2022-09-03T01:00:16;16.80;99.90
19974;DHT22;10148;47.694;9.442;2022-09-03T01:08:03;16.60;99.90
19974;DHT22;10148;47.694;9.442;2022-09-03T01:13:11;16.50;99.90
19974;DHT22;10148;47.694;9.442;2022-09-03T01:18:50;16.50;99.90
19974;DHT22;10148;47.694;9.442;2022-09-03T01:21:46;16.60;99.90
19974;DHT22;10148;47.694;9.442;2022-09-03T01:24:33;16.50;99.90
19974;DHT22;10148;47.694;9.442;2022-09-03T01:30:02;16.50;99.90
19974;DHT22;10148;47.694;9.442;2022-09-03T01:32:58;16.50;99.90
19974;DHT22;10148;47.694;9.442;2022-09-03T01:35:37;16.60;99.90
19974;DHT22;10148;47.694;9.442;2022-09-03T01:41:24;16.40;99.90
19974;DHT22;10148;47.694;9.442;2022-09-03T01:44:38;16.10;99.90
19974;DHT22;10148;47.694;9.442;2022-09-03T01:55:37;15.60;99.90
19974;DHT22;10148;47.694;9.442;2022-09-03T01:58:17;15.60;99.90
19974;DHT22;10148;47.694;9.442;2022-09-03T02:00:51;15.60;99.90
19974;DHT22;10148;47.694;9.442;2022-09-03T02:03:22;15.60;99.90
19974;DHT22;10148;47.694;9.442;2022-09-03T02:05:48;15.70;99.90
19974;DHT22;10148;47.694;9.442;2022-09-03T02:08:17;15.80;99.90
19974;DHT22;10148;47.694;9.442;2022-09-03T02:10:55;15.90;99.90
19974;DHT22;10148;47.694;9.442;2022-09-03T02:13:28;16.00;99.90
19974;DHT22;10148;47.694;9.442;2022-09-03T02:15:58;16.00;99.90
19974;DHT22;10148;47.694;9.442;2022-09-03T02:18:37;16.10;99.90
19974;DHT22;10148;47.694;9.442;2022-09-03T02:21:06;16.10;99.90
19974;DHT22;10148;47.694;9.442;2022-09-03T02:23:32;16.20;99.90
19974;DHT22;10148;47.694;9.442;2022-09-03T02:26:00;16.20;99.90
19974;DHT22;10148;47.694;9.442;2022-09-03T02:28:27;16.20;99.90
19974;DHT22;10148;47.694;9.442;2022-09-03T02:30:53;16.20;99.90
19974;DHT22;10148;47.694;9.442;2022-09-03T02:33:19;16.20;99.90
19974;DHT22;10148;47.694;9.442;2022-09-03T02:35:45;16.20;99.90
19974;DHT22;10148;47.694;9.442;2022-09-03T02:38:18;16.30;99.90
19974;DHT22;10148;47.694;9.442;2022-09-03T02:40:44;16.30;99.90
19974;DHT22;10148;47.694;9.442;2022-09-03T02:43:41;16.30;99.90
19974;DHT22;10148;47.694;9.442;2022-09-03T02:46:22;16.30;99.90
19974;DHT22;10148;47.694;9.442;2022-09-03T02:48:48;16.30;99.90
19974;DHT22;10148;47.694;9.442;2022-09-03T02:51:14;16.40;99.90
19974;DHT22;10148;47.694;9.442;2022-09-03T02:53:39;16.40;99.90
19974;DHT22;10148;47.694;9.442;2022-09-03T02:56:05;16.40;99.90
19974;DHT22;10148;47.694;9.442;2022-09-03T02:58:31;16.40;99.90
19974;DHT22;10148;47.694;9.442;2022-09-03T03:00:57;16.50;99.90
19974;DHT22;10148;47.694;9.442;2022-09-03T03:03:22;16.50;99.90
19974;DHT22;10148;47.694;9.442;2022-09-03T03:05:50;16.60;99.90
19974;DHT22;10148;47.694;9.442;2022-09-03T03:08:18;16.60;99.90
19974;DHT22;10148;47.694;9.442;2022-09-03T03:10:46;16.60;99.90
19974;DHT22;10148;47.694;9.442;2022-09-03T03:13:12;16.60;99.90
19974;DHT22;10148;47.694;9.442;2022-09-03T03:15:39;16.50;99.90
19974;DHT22;10148;47.694;9.442;2022-09-03T03:18:04;16.50;99.90
19974;DHT22;10148;47.694;9.442;2022-09-03T03:20:32;16.50;99.90
19974;DHT22;10148;47.694;9.442;2022-09-03T03:23:00;16.50;99.90
19974;DHT22;10148;47.694;9.442;2022-09-03T03:25:25;16.50;99.90
19974;DHT22;10148;47.694;9.442;2022-09-03T03:27:53;16.50;99.90
19974;DHT22;10148;47.694;9.442;2022-09-03T03:30:21;16.50;99.90
19974;DHT22;10148;47.694;9.442;2022-09-03T03:32:47;16.50;99.90
19974;DHT22;10148;47.694;9.442;2022-09-03T03:35:13;16.40;99.90
19974;DHT22;10148;47.694;9.442;2022-09-03T03:37:38;16.30;99.90
19974;DHT22;10148;47.694;9.442;2022-09-03T03:40:04;16.20;99.90
19974;DHT22;10148;47.694;9.442;2022-09-03T03:42:32;16.10;99.90
19974;DHT22;10148;47.694;9.442;2022-09-03T03:44:58;16.10;99.90
19974;DHT22;10148;47.694;9.442;2022-09-03T03:47:29;16.10;99.90
19974;DHT22;10148;47.694;9.442;2022-09-03T03:49:56;16.10;99.90
19974;DHT22;10148;47.694;9.442;2022-09-03T03:52:23;16.10;99.90
19974;DHT22;10148;47.694;9.442;2022-09-03T03:54:49;16.10;99.90
19974;DHT22;10148;47.694;9.442;2022-09-03T03:57:15;16.20;99.90
19974;DHT22;10148;47.694;9.442;2022-09-03T03:59:41;16.20;99.90
19974;DHT22;10148;47.694;9.442;2022-09-03T04:02:06;16.20;99.90
19974;DHT22;10148;47.694;9.442;2022-09-03T04:04:32;16.20;99.90
19974;DHT22;10148;47.694;9.442;2022-09-03T04:06:57;16.20;99.90
19974;DHT22;10148;47.694;9.442;2022-09-03T04:09:23;16.20;99.90
19974;DHT22;10148;47.694;9.442;2022-09-03T04:11:48;16.30;99.90
19974;DHT22;10148;47.694;9.442;2022-09-03T04:14:15;16.30;99.90
19974;DHT22;10148;47.694;9.442;2022-09-03T04:16:42;16.20;99.90
19974;DHT22;10148;47.694;9.442;2022-09-03T04:19:11;16.20;99.90
19974;DHT22;10148;47.694;9.442;2022-09-03T04:21:37;16.20;99.90
19974;DHT22;10148;47.694;9.442;2022-09-03T04:24:03;16.20;99.90
19974;DHT22;10148;47.694;9.442;2022-09-03T04:26:31;16.20;99.90
19974;DHT22;10148;47.694;9.442;2022-09-03T04:28:57;16.20;99.90
19974;DHT22;10148;47.694;9.442;2022-09-03T04:31:23;16.20;99.90
19974;DHT22;10148;47.694;9.442;2022-09-03T04:33:49;16.20;99.90
19974;DHT22;10148;47.694;9.442;2022-09-03T04:36:20;16.20;99.90
19974;DHT22;10148;47.694;9.442;2022-09-03T04:38:47;16.20;99.90
19974;DHT22;10148;47.694;9.442;2022-09-03T04:41:15;16.30;99.90
19974;DHT22;10148;47.694;9.442;2022-09-03T04:43:41;16.30;99.90
19974;DHT22;10148;47.694;9.442;2022-09-03T04:46:08;16.30;99.90
19974;DHT22;10148;47.694;9.442;2022-09-03T04:48:35;16.30;99.90
19974;DHT22;10148;47.694;9.442;2022-09-03T04:51:06;16.30;99.90
19974;DHT22;10148;47.694;9.442;2022-09-03T04:53:34;16.30;99.90
19974;DHT22;10148;47.694;9.442;2022-09-03T04:56:00;16.30;99.90
19974;DHT22;10148;47.694;9.442;2022-09-03T04:58:26;16.30;99.90
19974;DHT22;10148;47.694;9.442;2022-09-03T05:00:51;16.30;99.90
19974;DHT22;10148;47.694;9.442;2022-09-03T05:03:17;16.30;99.90
19974;DHT22;10148;47.694;9.442;2022-09-03T05:05:54;16.30;99.90
19974;DHT22;10148;47.694;9.442;2022-09-03T05:08:21;16.40;99.90
19974;DHT22;10148;47.694;9.442;2022-09-03T05:10:47;16.30;99.90
19974;DHT22;10148;47.694;9.442;2022-09-03T05:13:12;16.40;99.90
19974;DHT22;10148;47.694;9.442;2022-09-03T05:15:38;16.40;99.90
19974;DHT22;10148;47.694;9.442;2022-09-03T05:18:03;16.40;99.90
19974;DHT22;10148;47.694;9.442;2022-09-03T05:20:30;16.40;99.90
19974;DHT22;10148;47.694;9.442;2022-09-03T05:23:01;16.50;99.90
19974;DHT22;10148;47.694;9.442;2022-09-03T05:25:27;16.50;99.90
19974;DHT22;10148;47.694;9.442;2022-09-03T05:27:53;16.40;99.90
19974;DHT22;10148;47.694;9.442;2022-09-03T05:30:19;16.40;99.90
19974;DHT22;10148;47.694;9.442;2022-09-03T05:32:48;16.40;99.90
19974;DHT22;10148;47.694;9.442;2022-09-03T05:35:13;16.40;99.90
19974;DHT22;10148;47.694;9.442;2022-09-03T05:37:39;16.40;99.90
19974;DHT22;10148;47.694;9.442;2022-09-03T05:40:05;16.40;99.90
19974;DHT22;10148;47.694;9.442;2022-09-03T05:42:31;16.40;99.90
19974;DHT22;10148;47.694;9.442;2022-09-03T05:44:59;16.40;99.90
19974;DHT22;10148;47.694;9.442;2022-09-03T05:47:24;16.40;99.90
19974;DHT22;10148;47.694;9.442;2022-09-03T05:49:50;16.50;99.90
19974;DHT22;10148;47.694;9.442;2022-09-03T05:52:15;16.50;99.90
19974;DHT22;10148;47.694;9.442;2022-09-03T05:54:43;16.60;99.90
19974;DHT22;10148;47.694;9.442;2022-09-03T05:57:08;16.60;99.90
19974;DHT22;10148;47.694;9.442;2022-09-03T05:59:34;16.60;99.90
19974;DHT22;10148;47.694;9.442;2022-09-03T06:01:59;16.70;99.90
19974;DHT22;10148;47.694;9.442;2022-09-03T06:04:25;16.70;99.90
19974;DHT22;10148;47.694;9.442;2022-09-03T06:06:50;16.80;99.90
19974;DHT22;10148;47.694;9.442;2022-09-03T06:09:18;17.00;99.90
19974;DHT22;10148;47.694;9.442;2022-09-03T06:11:45;17.30;99.90
19974;DHT22;10148;47.694;9.442;2022-09-03T06:14:12;17.30;99.90
19974;DHT22;10148;47.694;9.442;2022-09-03T06:16:40;17.20;99.90
19974;DHT22;10148;47.694;9.442;2022-09-03T06:19:07;17.20;99.90
19974;DHT22;10148;47.694;9.442;2022-09-03T06:21:34;17.20;99.90
19974;DHT22;10148;47.694;9.442;2022-09-03T06:24:01;17.20;99.90
19974;DHT22;10148;47.694;9.442;2022-09-03T06:26:27;17.20;99.90
19974;DHT22;10148;47.694;9.442;2022-09-03T06:28:53;17.30;99.90
19974;DHT22;10148;47.694;9.442;2022-09-03T06:31:21;17.40;99.90
19974;DHT22;10148;47.694;9.442;2022-09-03T06:33:47;17.40;99.90
19974;DHT22;10148;47.694;9.442;2022-09-03T06:36:15;17.60;99.90
19974;DHT22;10148;47.694;9.442;2022-09-03T06:38:41;17.70;99.90
19974;DHT22;10148;47.694;9.442;2022-09-03T06:41:17;17.70;99.90
19974;DHT22;10148;47.694;9.442;2022-09-03T06:43:50;17.70;99.90
19974;DHT22;10148;47.694;9.442;2022-09-03T06:46:18;17.70;99.90
19974;DHT22;10148;47.694;9.442;2022-09-03T06:48:44;17.70;99.90
19974;DHT22;10148;47.694;9.442;2022-09-03T06:51:21;17.70;99.90
19974;DHT22;10148;47.694;9.442;2022-09-03T06:53:49;17.70;99.90
19974;DHT22;10148;47.694;9.442;2022-09-03T06:56:18;17.70;99.90
19974;DHT22;10148;47.694;9.442;2022-09-03T06:58:51;17.70;99.90
19974;DHT22;10148;47.694;9.442;2022-09-03T07:01:18;17.90;99.90
19974;DHT22;10148;47.694;9.442;2022-09-03T07:03:46;18.10;99.90
19974;DHT22;10148;47.694;9.442;2022-09-03T07:06:14;18.20;99.90
19974;DHT22;10148;47.694;9.442;2022-09-03T07:08:41;18.40;99.90
19974;DHT22;10148;47.694;9.442;2022-09-03T07:11:10;18.30;99.90
19974;DHT22;10148;47.694;9.442;2022-09-03T07:13:40;18.20;99.90
19974;DHT22;10148;47.694;9.442;2022-09-03T07:16:13;18.10;99.90
19974;DHT22;10148;47.694;9.442;2022-09-03T07:18:39;18.10;99.90
19974;DHT22;10148;47.694;9.442;2022-09-03T07:21:26;18.10;99.90
19974;DHT22;10148;47.694;9.442;2022-09-03T07:23:53;18.30;99.90
19974;DHT22;10148;47.694;9.442;2022-09-03T07:26:27;18.30;99.90
19974;DHT22;10148;47.694;9.442;2022-09-03T07:28:53;18.60;99.90
19974;DHT22;10148;47.694;9.442;2022-09-03T07:31:30;18.80;99.90
19974;DHT22;10148;47.694;9.442;2022-09-03T07:34:10;18.70;99.90
19974;DHT22;10148;47.694;9.442;2022-09-03T07:36:39;18.60;99.90
19974;DHT22;10148;47.694;9.442;2022-09-03T07:39:09;18.50;99.90
19974;DHT22;10148;47.694;9.442;2022-09-03T07:41:36;18.40;99.90
19974;DHT22;10148;47.694;9.442;2022-09-03T07:44:02;18.40;99.90
19974;DHT22;10148;47.694;9.442;2022-09-03T07:46:31;18.40;99.90
19974;DHT22;10148;47.694;9.442;2022-09-03T07:48:58;18.30;99.90
19974;DHT22;10148;47.694;9.442;2022-09-03T07:51:29;18.30;99.90
19974;DHT22;10148;47.694;9.442;2022-09-03T07:53:57;18.30;99.90
19974;DHT22;10148;47.694;9.442;2022-09-03T07:56:24;18.30;99.90
19974;DHT22;10148;47.694;9.442;2022-09-03T07:58:49;18.30;99.90
19974;DHT22;10148;47.694;9.442;2022-09-03T08:01:20;18.30;99.90
19974;DHT22;10148;47.694;9.442;2022-09-03T08:03:50;18.30;99.90
19974;DHT22;10148;47.694;9.442;2022-09-03T08:06:18;18.30;99.90
19974;DHT22;10148;47.694;9.442;2022-09-03T08:08:44;18.40;99.90
19974;DHT22;10148;47.694;9.442;2022-09-03T08:11:18;18.50;99.90
19974;DHT22;10148;47.694;9.442;2022-09-03T08:13:57;18.60;99.90
19974;DHT22;10148;47.694;9.442;2022-09-03T08:16:27;18.70;99.90
19974;DHT22;10148;47.694;9.442;2022-09-03T08:18:53;18.80;99.90
19974;DHT22;10148;47.694;9.442;2022-09-03T08:21:19;18.90;99.90
19974;DHT22;10148;47.694;9.442;2022-09-03T08:23:46;19.10;99.90
19974;DHT22;10148;47.694;9.442;2022-09-03T08:26:14;19.20;99.90
19974;DHT22;10148;47.694;9.442;2022-09-03T08:28:40;19.30;99.90
19974;DHT22;10148;47.694;9.442;2022-09-03T08:31:18;19.30;99.90
19974;DHT22;10148;47.694;9.442;2022-09-03T08:33:49;19.30;99.90
19974;DHT22;10148;47.694;9.442;2022-09-03T08:36:26;19.40;99.90
19974;DHT22;10148;47.694;9.442;2022-09-03T08:38:54;19.40;99.90
19974;DHT22;10148;47.694;9.442;2022-09-03T08:44:24;19.60;99.90
19974;DHT22;10148;47.694;9.442;2022-09-03T08:49:47;19.90;99.90
19974;DHT22;10148;47.694;9.442;2022-09-03T08:57:41;20.10;99.90
19974;DHT22;10148;47.694;9.442;2022-09-03T09:00:08;20.10;99.90
19974;DHT22;10148;47.694;9.442;2022-09-03T09:02:43;20.20;99.90
19974;DHT22;10148;47.694;9.442;2022-09-03T09:05:18;20.30;99.90
19974;DHT22;10148;47.694;9.442;2022-09-03T09:07:55;20.40;99.90
19974;DHT22;10148;47.694;9.442;2022-09-03T09:10:43;20.60;99.90
19974;DHT22;10148;47.694;9.442;2022-09-03T09:13:40;20.60;99.90
19974;DHT22;10148;47.694;9.442;2022-09-03T09:16:35;20.70;99.90
19974;DHT22;10148;47.694;9.442;2022-09-03T09:19:19;20.80;99.90
19974;DHT22;10148;47.694;9.442;2022-09-03T09:21:53;20.90;99.90
19974;DHT22;10148;47.694;9.442;2022-09-03T09:24:23;20.80;99.90
19974;DHT22;10148;47.694;9.442;2022-09-03T09:27:03;20.80;99.90
19974;DHT22;10148;47.694;9.442;2022-09-03T09:29:35;20.90;99.90
19974;DHT22;10148;47.694;9.442;2022-09-03T09:32:01;21.00;99.90
19974;DHT22;10148;47.694;9.442;2022-09-03T09:34:26;21.10;99.90
19974;DHT22;10148;47.694;9.442;2022-09-03T09:36:54;21.10;99.90
19974;DHT22;10148;47.694;9.442;2022-09-03T09:39:21;21.10;99.90
19974;DHT22;10148;47.694;9.442;2022-09-03T09:42:01;21.20;99.90
19974;DHT22;10148;47.694;9.442;2022-09-03T09:44:29;21.40;99.90
19974;DHT22;10148;47.694;9.442;2022-09-03T09:47:36;21.60;99.90
19974;DHT22;10148;47.694;9.442;2022-09-03T09:50:01;21.70;99.90
19974;DHT22;10148;47.694;9.442;2022-09-03T09:52:28;21.90;99.90
19974;DHT22;10148;47.694;9.442;2022-09-03T09:55:16;21.90;99.90
19974;DHT22;10148;47.694;9.442;2022-09-03T09:57:42;21.90;99.90
19974;DHT22;10148;47.694;9.442;2022-09-03T10:00:16;21.90;99.90
19974;DHT22;10148;47.694;9.442;2022-09-03T10:02:53;22.10;99.90
19974;DHT22;10148;47.694;9.442;2022-09-03T10:05:31;22.30;99.90
19974;DHT22;10148;47.694;9.442;2022-09-03T10:08:03;22.50;99.90
19974;DHT22;10148;47.694;9.442;2022-09-03T10:10:32;22.60;99.90
19974;DHT22;10148;47.694;9.442;2022-09-03T10:13:04;22.70;99.90
19974;DHT22;10148;47.694;9.442;2022-09-03T10:15:49;22.80;99.90
19974;DHT22;10148;47.694;9.442;2022-09-03T10:18:37;22.80;99.90
19974;DHT22;10148;47.694;9.442;2022-09-03T10:21:25;23.00;99.90
19974;DHT22;10148;47.694;9.442;2022-09-03T10:26:40;23.00;99.90
19974;DHT22;10148;47.694;9.442;2022-09-03T10:29:09;23.10;99.90
19974;DHT22;10148;47.694;9.442;2022-09-03T10:36:55;22.90;99.90
19974;DHT22;10148;47.694;9.442;2022-09-03T10:50:47;21.60;99.90
19974;DHT22;10148;47.694;9.442;2022-09-03T10:56:06;20.70;99.90
19974;DHT22;10148;47.694;9.442;2022-09-03T11:01:46;19.20;99.90
19974;DHT22;10148;47.694;9.442;2022-09-03T11:06:53;18.50;99.90
19974;DHT22;10148;47.694;9.442;2022-09-03T11:12:11;18.30;99.90
19974;DHT22;10148;47.694;9.442;2022-09-03T11:14:43;18.40;99.90
19974;DHT22;10148;47.694;9.442;2022-09-03T11:17:28;18.50;99.90
19974;DHT22;10148;47.694;9.442;2022-09-03T11:20:11;18.60;99.90
19974;DHT22;10148;47.694;9.442;2022-09-03T11:22:40;18.70;99.90
19974;DHT22;10148;47.694;9.442;2022-09-03T11:25:10;18.90;99.90
19974;DHT22;10148;47.694;9.442;2022-09-03T11:30:14;19.20;99.90
19974;DHT22;10148;47.694;9.442;2022-09-03T11:32:58;19.40;99.90
19974;DHT22;10148;47.694;9.442;2022-09-03T11:35:38;19.40;99.90
19974;DHT22;10148;47.694;9.442;2022-09-03T11:43:32;19.80;99.90
19974;DHT22;10148;47.694;9.442;2022-09-03T11:48:53;20.10;99.90
19974;DHT22;10148;47.694;9.442;2022-09-03T11:56:28;20.20;99.90
19974;DHT22;10148;47.694;9.442;2022-09-03T11:59:04;20.30;99.90
19974;DHT22;10148;47.694;9.442;2022-09-03T12:01:31;20.40;99.90
19974;DHT22;10148;47.694;9.442;2022-09-03T12:04:00;20.40;99.90
19974;DHT22;10148;47.694;9.442;2022-09-03T12:09:16;20.40;99.90
19974;DHT22;10148;47.694;9.442;2022-09-03T12:20:36;20.10;99.90
19974;DHT22;10148;47.694;9.442;2022-09-03T12:23:02;20.10;99.90
19974;DHT22;10148;47.694;9.442;2022-09-03T12:25:28;20.10;99.90
19974;DHT22;10148;47.694;9.442;2022-09-03T12:27:53;20.10;99.90
19974;DHT22;10148;47.694;9.442;2022-09-03T12:30:22;20.00;99.90
19974;DHT22;10148;47.694;9.442;2022-09-03T12:32:49;19.90;99.90
19974;DHT22;10148;47.694;9.442;2022-09-03T12:35:18;20.00;99.90
19974;DHT22;10148;47.694;9.442;2022-09-03T12:37:44;20.00;99.90
19974;DHT22;10148;47.694;9.442;2022-09-03T12:40:25;20.10;99.90
19974;DHT22;10148;47.694;9.442;2022-09-03T12:42:51;20.20;99.90
19974;DHT22;10148;47.694;9.442;2022-09-03T12:45:20;20.20;99.90
19974;DHT22;10148;47.694;9.442;2022-09-03T12:47:46;20.20;99.90
19974;DHT22;10148;47.694;9.442;2022-09-03T12:50:17;20.10;99.90
19974;DHT22;10148;47.694;9.442;2022-09-03T12:52:50;20.00;99.90
19974;DHT22;10148;47.694;9.442;2022-09-03T12:55:51;20.00;99.90
19974;DHT22;10148;47.694;9.442;2022-09-03T13:01:11;20.70;99.90
19974;DHT22;10148;47.694;9.442;2022-09-03T13:06:09;21.60;99.90
19974;DHT22;10148;47.694;9.442;2022-09-03T13:09:01;21.80;99.90
19974;DHT22;10148;47.694;9.442;2022-09-03T13:11:31;21.90;99.90
19974;DHT22;10148;47.694;9.442;2022-09-03T13:14:06;21.80;99.90
19974;DHT22;10148;47.694;9.442;2022-09-03T13:30:20;21.60;99.90
19974;DHT22;10148;47.694;9.442;2022-09-03T13:33:15;21.40;99.90
19974;DHT22;10148;47.694;9.442;2022-09-03T13:41:44;22.20;99.90
19974;DHT22;10148;47.694;9.442;2022-09-03T13:52:41;22.80;99.90
19974;DHT22;10148;47.694;9.442;2022-09-03T13:55:14;23.00;99.90
19974;DHT22;10148;47.694;9.442;2022-09-03T13:58:05;23.20;99.90
19974;DHT22;10148;47.694;9.442;2022-09-03T14:00:39;23.40;99.90
19974;DHT22;10148;47.694;9.442;2022-09-03T14:03:31;23.70;99.90
19974;DHT22;10148;47.694;9.442;2022-09-03T14:11:52;24.20;99.90
19974;DHT22;10148;47.694;9.442;2022-09-03T14:14:38;24.20;99.90
19974;DHT22;10148;47.694;9.442;2022-09-03T14:17:13;24.20;99.90
19974;DHT22;10148;47.694;9.442;2022-09-03T14:22:28;24.30;99.90
19974;DHT22;10148;47.694;9.442;2022-09-03T14:25:08;24.30;99.90
19974;DHT22;10148;47.694;9.442;2022-09-03T14:27:34;24.40;99.90
19974;DHT22;10148;47.694;9.442;2022-09-03T14:30:06;24.40;99.90
19974;DHT22;10148;47.694;9.442;2022-09-03T14:33:20;24.40;99.90
19974;DHT22;10148;47.694;9.442;2022-09-03T14:36:09;24.70;99.90
19974;DHT22;10148;47.694;9.442;2022-09-03T14:39:04;24.60;99.90
19974;DHT22;10148;47.694;9.442;2022-09-03T14:44:57;24.90;99.90
19974;DHT22;10148;47.694;9.442;2022-09-03T14:48:04;25.20;99.90
19974;DHT22;10148;47.694;9.442;2022-09-03T14:52:01;25.30;99.90
19974;DHT22;10148;47.694;9.442;2022-09-03T14:57:07;25.30;99.90
19974;DHT22;10148;47.694;9.442;2022-09-03T15:02:41;25.40;99.90
19974;DHT22;10148;47.694;9.442;2022-09-03T15:11:14;25.40;99.90
19974;DHT22;10148;47.694;9.442;2022-09-03T15:14:06;25.40;99.90
19974;DHT22;10148;47.694;9.442;2022-09-03T15:30:44;25.00;99.90
19974;DHT22;10148;47.694;9.442;2022-09-03T15:41:01;25.10;99.90
19974;DHT22;10148;47.694;9.442;2022-09-03T15:43:32;25.20;99.90
19974;DHT22;10148;47.694;9.442;2022-09-03T15:46:09;25.40;99.90
19974;DHT22;10148;47.694;9.442;2022-09-03T15:51:45;25.40;99.90
19974;DHT22;10148;47.694;9.442;2022-09-03T15:54:41;25.10;99.90
19974;DHT22;10148;47.694;9.442;2022-09-03T15:57:24;24.90;99.90
19974;DHT22;10148;47.694;9.442;2022-09-03T15:59:54;25.00;99.90
19974;DHT22;10148;47.694;9.442;2022-09-03T16:02:32;25.20;99.90
19974;DHT22;10148;47.694;9.442;2022-09-03T16:05:04;25.30;99.90
19974;DHT22;10148;47.694;9.442;2022-09-03T16:07:53;25.40;99.90
19974;DHT22;10148;47.694;9.442;2022-09-03T16:10:49;25.20;99.90
19974;DHT22;10148;47.694;9.442;2022-09-03T16:16:05;24.80;99.90
19974;DHT22;10148;47.694;9.442;2022-09-03T16:18:45;24.70;99.90
19974;DHT22;10148;47.694;9.442;2022-09-03T16:21:38;24.60;99.90
19974;DHT22;10148;47.694;9.442;2022-09-03T16:26:59;24.10;99.90
19974;DHT22;10148;47.694;9.442;2022-09-03T16:29:29;24.00;99.90
19974;DHT22;10148;47.694;9.442;2022-09-03T16:32:26;24.00;99.90
19974;DHT22;10148;47.694;9.442;2022-09-03T16:35:23;24.00;99.90
19974;DHT22;10148;47.694;9.442;2022-09-03T16:40:46;23.70;99.90
19974;DHT22;10148;47.694;9.442;2022-09-03T16:46:21;23.70;99.90
19974;DHT22;10148;47.694;9.442;2022-09-03T16:52:09;23.50;99.90
19974;DHT22;10148;47.694;9.442;2022-09-03T16:57:56;23.20;99.90
19974;DHT22;10148;47.694;9.442;2022-09-03T17:00:35;23.30;99.90
19974;DHT22;10148;47.694;9.442;2022-09-03T17:08:54;23.30;99.90
19974;DHT22;10148;47.694;9.442;2022-09-03T17:19:52;23.10;99.90
19974;DHT22;10148;47.694;9.442;2022-09-03T17:25:50;23.20;99.90
19974;DHT22;10148;47.694;9.442;2022-09-03T17:31:26;23.10;99.90
19974;DHT22;10148;47.694;9.442;2022-09-03T17:40:02;22.50;99.90
19974;DHT22;10148;47.694;9.442;2022-09-03T17:48:52;21.50;99.90
19974;DHT22;10148;47.694;9.442;2022-09-03T17:56:29;21.50;99.90
19974;DHT22;10148;47.694;9.442;2022-09-03T17:59:17;21.60;99.90
19974;DHT22;10148;47.694;9.442;2022-09-03T18:01:51;21.60;99.90
19974;DHT22;10148;47.694;9.442;2022-09-03T18:04:40;21.50;99.90
19974;DHT22;10148;47.694;9.442;2022-09-03T18:09:53;21.50;99.90
19974;DHT22;10148;47.694;9.442;2022-09-03T18:12:25;21.30;99.90
19974;DHT22;10148;47.694;9.442;2022-09-03T18:14:58;21.10;99.90
19974;DHT22;10148;47.694;9.442;2022-09-03T18:17:42;21.00;99.90
19974;DHT22;10148;47.694;9.442;2022-09-03T18:20:11;20.90;99.90
19974;DHT22;10148;47.694;9.442;2022-09-03T18:23:06;20.80;99.90
19974;DHT22;10148;47.694;9.442;2022-09-03T18:26:00;20.70;99.90
19974;DHT22;10148;47.694;9.442;2022-09-03T18:28:51;20.60;99.90
19974;DHT22;10148;47.694;9.442;2022-09-03T18:31:36;20.50;99.90
19974;DHT22;10148;47.694;9.442;2022-09-03T18:34:28;20.40;99.90
19974;DHT22;10148;47.694;9.442;2022-09-03T18:37:23;20.30;99.90
19974;DHT22;10148;47.694;9.442;2022-09-03T18:40:11;20.10;99.90
19974;DHT22;10148;47.694;9.442;2022-09-03T18:46:13;20.00;99.90
19974;DHT22;10148;47.694;9.442;2022-09-03T18:49:17;19.90;99.90
19974;DHT22;10148;47.694;9.442;2022-09-03T18:52:34;19.90;99.90
19974;DHT22;10148;47.694;9.442;2022-09-03T19:01:42;19.80;99.90
19974;DHT22;10148;47.694;9.442;2022-09-03T19:07:12;19.60;99.90
19974;DHT22;10148;47.694;9.442;2022-09-03T19:10:04;19.60;99.90
19974;DHT22;10148;47.694;9.442;2022-09-03T19:13:05;19.60;99.90
19974;DHT22;10148;47.694;9.442;2022-09-03T19:16:20;19.60;99.90
19974;DHT22;10148;47.694;9.442;2022-09-03T19:22:09;19.60;99.90
19974;DHT22;10148;47.694;9.442;2022-09-03T19:25:07;19.50;99.90
19974;DHT22;10148;47.694;9.442;2022-09-03T19:28:17;19.30;99.90
19974;DHT22;10148;47.694;9.442;2022-09-03T19:37:30;19.00;99.90
19974;DHT22;10148;47.694;9.442;2022-09-03T19:44:06;19.10;99.90
19974;DHT22;10148;47.694;9.442;2022-09-03T19:47:01;19.00;99.90
19974;DHT22;10148;47.694;9.442;2022-09-03T19:53:04;18.90;99.90
19974;DHT22;10148;47.694;9.442;2022-09-03T19:55:57;18.90;99.90
19974;DHT22;10148;47.694;9.442;2022-09-03T19:58:48;18.80;99.90
19974;DHT22;10148;47.694;9.442;2022-09-03T20:01:36;18.70;99.90
19974;DHT22;10148;47.694;9.442;2022-09-03T20:04:31;18.60;99.90
19974;DHT22;10148;47.694;9.442;2022-09-03T20:07:17;18.60;99.90
19974;DHT22;10148;47.694;9.442;2022-09-03T20:10:04;18.50;99.90
19974;DHT22;10148;47.694;9.442;2022-09-03T20:13:11;18.40;99.90
19974;DHT22;10148;47.694;9.442;2022-09-03T20:21:06;18.30;99.90
19974;DHT22;10148;47.694;9.442;2022-09-03T20:23:56;18.30;99.90
19974;DHT22;10148;47.694;9.442;2022-09-03T20:26:48;18.20;99.90
19974;DHT22;10148;47.694;9.442;2022-09-03T20:29:23;18.10;99.90
19974;DHT22;10148;47.694;9.442;2022-09-03T20:34:55;18.10;99.90
19974;DHT22;10148;47.694;9.442;2022-09-03T20:52:05;17.80;99.90
19974;DHT22;10148;47.694;9.442;2022-09-03T20:54:40;17.70;99.90
19974;DHT22;10148;47.694;9.442;2022-09-03T21:00:12;17.70;99.90
19974;DHT22;10148;47.694;9.442;2022-09-03T21:13:34;17.70;99.90
19974;DHT22;10148;47.694;9.442;2022-09-03T21:24:19;17.60;99.90
19974;DHT22;10148;47.694;9.442;2022-09-03T21:26:52;17.50;99.90
19974;DHT22;10148;47.694;9.442;2022-09-03T21:29:29;17.50;99.90
19974;DHT22;10148;47.694;9.442;2022-09-03T21:32:02;17.50;99.90
19974;DHT22;10148;47.694;9.442;2022-09-03T21:37:00;17.40;99.90
19974;DHT22;10148;47.694;9.442;2022-09-03T21:39:32;17.40;99.90
19974;DHT22;10148;47.694;9.442;2022-09-03T21:42:05;17.30;99.90
19974;DHT22;10148;47.694;9.442;2022-09-03T21:47:36;17.20;99.90